Time;durP1;ratioP1;P1;durP2;ratioP2;P2;SDS_P1;SDS_P2;PMS_P1;PMS_P2;Temp;Humidity;BMP_temperature;BMP_pressure;BME280_temperature;BME280_humidity;BME280_pressure;Samples;Min_cycle;Max_cycle;Signal;HPM_P1;HPM_P2
2022/08/31 00:05:02;;;;;;;;;;;22.00;51.90;;;;;;484201;246;1295;-74
2022/08/31 00:07:03;;;;;;;;;;;22.00;52.00;;;;;;484278;246;2160;-74
2022/08/31 00:09:05;;;;;;;;;;;22.10;51.90;;;;;;484229;246;1059;-74
2022/08/31 00:11:09;;;;;;;;;;;22.00;51.80;;;;;;484299;246;1331;-74
2022/08/31 00:13:15;;;;;;;;;;;22.00;52.00;;;;;;484149;246;1523;-74
2022/08/31 00:15:16;;;;;;;;;;;22.00;52.10;;;;;;485769;245;1045;-74
2022/08/31 00:17:17;;;;;;;;;;;22.00;52.00;;;;;;485891;245;1205;-74
2022/08/31 00:19:19;;;;;;;;;;;22.00;52.10;;;;;;485736;245;1042;-74
2022/08/31 00:21:20;;;;;;;;;;;22.10;52.00;;;;;;486033;245;1184;-74
2022/08/31 00:23:21;;;;;;;;;;;22.10;51.90;;;;;;485745;245;1337;-74
2022/08/31 00:25:23;;;;;;;;;;;22.10;51.80;;;;;;485446;245;1235;-74
2022/08/31 00:27:24;;;;;;;;;;;22.10;51.70;;;;;;484242;246;2160;-74
2022/08/31 00:29:26;;;;;;;;;;;22.10;51.70;;;;;;484594;246;1289;-74
2022/08/31 00:31:27;;;;;;;;;;;22.10;51.70;;;;;;484266;246;1174;-74
2022/08/31 00:33:28;;;;;;;;;;;22.20;51.90;;;;;;484282;246;1205;-74
2022/08/31 00:35:30;;;;;;;;;;;22.20;52.00;;;;;;484273;246;1124;-74
2022/08/31 00:37:31;;;;;;;;;;;22.10;51.90;;;;;;484281;246;1096;-74
2022/08/31 00:39:32;;;;;;;;;;;22.10;52.00;;;;;;484404;246;1052;-74
2022/08/31 00:41:34;;;;;;;;;;;22.10;52.10;;;;;;484364;246;1105;-74
2022/08/31 00:43:35;;;;;;;;;;;22.10;52.20;;;;;;484259;246;1209;-74
2022/08/31 00:45:36;;;;;;;;;;;22.20;52.10;;;;;;484332;246;1164;-74
2022/08/31 00:47:38;;;;;;;;;;;22.20;51.90;;;;;;484264;241;2132;-74
2022/08/31 00:49:39;;;;;;;;;;;22.20;51.80;;;;;;484276;246;1188;-74
2022/08/31 00:51:40;;;;;;;;;;;22.20;51.80;;;;;;484320;246;1175;-75
2022/08/31 00:53:43;;;;;;;;;;;22.20;51.90;;;;;;484227;242;1272;-75
2022/08/31 00:55:43;;;;;;;;;;;22.10;52.10;;;;;;484101;246;1363;-75
2022/08/31 00:57:44;;;;;;;;;;;22.10;52.10;;;;;;484387;246;1186;-75
2022/08/31 00:59:46;;;;;;;;;;;22.10;52.20;;;;;;484528;246;1142;-74
2022/08/31 01:01:47;;;;;;;;;;;22.10;52.30;;;;;;484294;246;1082;-74
2022/08/31 01:03:48;;;;;;;;;;;22.10;52.20;;;;;;484245;246;1125;-74
2022/08/31 01:05:50;;;;;;;;;;;22.10;52.20;;;;;;484257;246;1156;-74
2022/08/31 01:07:51;;;;;;;;;;;22.10;52.20;;;;;;484166;246;2187;-74
2022/08/31 01:09:52;;;;;;;;;;;22.20;52.10;;;;;;484285;246;1056;-74
2022/08/31 01:11:54;;;;;;;;;;;22.10;52.00;;;;;;484476;246;1230;-74
2022/08/31 01:13:55;;;;;;;;;;;22.20;52.10;;;;;;484246;246;1144;-74
2022/08/31 01:15:56;;;;;;;;;;;22.10;52.10;;;;;;484496;246;1150;-74
2022/08/31 01:17:58;;;;;;;;;;;22.10;52.10;;;;;;484287;246;1101;-74
2022/08/31 01:19:59;;;;;;;;;;;22.10;52.00;;;;;;484297;246;1162;-74
2022/08/31 01:22:00;;;;;;;;;;;22.20;52.10;;;;;;484230;246;1148;-74
2022/08/31 01:24:02;;;;;;;;;;;22.10;52.10;;;;;;484227;246;1127;-74
2022/08/31 01:26:03;;;;;;;;;;;22.20;52.00;;;;;;484245;246;1198;-74
2022/08/31 01:28:04;;;;;;;;;;;22.10;52.10;;;;;;484368;246;2192;-74
2022/08/31 01:30:06;;;;;;;;;;;22.10;52.10;;;;;;484268;246;1120;-74
2022/08/31 01:32:07;;;;;;;;;;;22.10;52.10;;;;;;484286;246;1134;-74
2022/08/31 01:34:08;;;;;;;;;;;22.10;52.20;;;;;;484282;246;1103;-74
2022/08/31 01:36:10;;;;;;;;;;;22.00;52.20;;;;;;484210;246;1258;-74
2022/08/31 01:38:12;;;;;;;;;;;22.10;52.30;;;;;;484283;246;1160;-74
2022/08/31 01:40:12;;;;;;;;;;;22.10;52.20;;;;;;484405;246;1193;-74
2022/08/31 01:42:14;;;;;;;;;;;22.00;52.30;;;;;;484456;246;1157;-74
2022/08/31 01:44:15;;;;;;;;;;;22.00;52.50;;;;;;484157;246;1132;-74
2022/08/31 01:46:16;;;;;;;;;;;22.00;52.40;;;;;;484245;246;1179;-74
2022/08/31 01:48:18;;;;;;;;;;;22.00;52.40;;;;;;484367;246;2145;-74
2022/08/31 01:50:19;;;;;;;;;;;22.10;52.40;;;;;;484279;246;1207;-74
2022/08/31 01:52:21;;;;;;;;;;;22.00;52.40;;;;;;484548;246;1238;-74
2022/08/31 01:54:23;;;;;;;;;;;22.00;52.50;;;;;;484288;246;1193;-75
2022/08/31 01:56:23;;;;;;;;;;;22.10;52.40;;;;;;484025;246;1418;-75
2022/08/31 01:58:24;;;;;;;;;;;22.10;52.30;;;;;;484275;246;1178;-75
2022/08/31 02:00:26;;;;;;;;;;;22.10;52.30;;;;;;484285;246;1199;-75
2022/08/31 02:02:27;;;;;;;;;;;22.10;52.30;;;;;;484396;246;1082;-75
2022/08/31 02:04:28;;;;;;;;;;;22.00;52.40;;;;;;484240;246;1189;-75
2022/08/31 02:06:30;;;;;;;;;;;22.00;52.40;;;;;;484123;246;1175;-75
2022/08/31 02:08:31;;;;;;;;;;;22.00;52.50;;;;;;484167;246;2207;-75
2022/08/31 02:10:33;;;;;;;;;;;22.00;52.40;;;;;;484242;246;1127;-75
2022/08/31 02:12:34;;;;;;;;;;;22.10;52.30;;;;;;484242;246;1130;-75
2022/08/31 02:14:36;;;;;;;;;;;22.10;52.20;;;;;;484350;246;1112;-75
2022/08/31 02:16:37;;;;;;;;;;;22.00;52.30;;;;;;484449;246;1134;-74
2022/08/31 02:18:38;;;;;;;;;;;22.00;52.40;;;;;;484259;246;1204;-74
2022/08/31 02:20:40;;;;;;;;;;;22.10;52.30;;;;;;484168;246;1117;-74
2022/08/31 02:22:41;;;;;;;;;;;22.10;52.40;;;;;;484384;246;1066;-74
2022/08/31 02:24:42;;;;;;;;;;;22.20;52.10;;;;;;484377;246;1102;-74
2022/08/31 02:26:44;;;;;;;;;;;22.30;51.90;;;;;;484327;246;1140;-75
2022/08/31 02:28:45;;;;;;;;;;;22.30;51.90;;;;;;484409;246;2128;-75
2022/08/31 02:30:46;;;;;;;;;;;22.30;51.80;;;;;;484256;246;1201;-75
2022/08/31 02:32:48;;;;;;;;;;;22.20;51.90;;;;;;484220;245;1174;-75
2022/08/31 02:34:49;;;;;;;;;;;22.20;52.00;;;;;;484275;246;1140;-75
2022/08/31 02:36:50;;;;;;;;;;;22.20;52.00;;;;;;484138;246;1186;-75
2022/08/31 02:38:52;;;;;;;;;;;22.20;52.00;;;;;;484205;246;1120;-74
2022/08/31 02:40:53;;;;;;;;;;;22.20;52.10;;;;;;484272;246;1190;-74
2022/08/31 02:42:54;;;;;;;;;;;22.10;52.20;;;;;;484300;242;1203;-74
2022/08/31 02:44:56;;;;;;;;;;;22.10;52.20;;;;;;484196;246;1130;-74
2022/08/31 02:46:57;;;;;;;;;;;22.20;52.20;;;;;;484289;246;1217;-74
2022/08/31 02:48:59;;;;;;;;;;;22.20;52.10;;;;;;484428;246;2113;-74
2022/08/31 02:51:00;;;;;;;;;;;22.20;52.20;;;;;;484461;246;1169;-74
2022/08/31 02:53:01;;;;;;;;;;;22.20;52.10;;;;;;484349;246;1318;-74
2022/08/31 02:55:03;;;;;;;;;;;22.10;52.20;;;;;;484429;246;1163;-74
2022/08/31 02:57:04;;;;;;;;;;;22.10;52.30;;;;;;484146;246;1193;-74
2022/08/31 02:59:05;;;;;;;;;;;22.10;52.30;;;;;;484252;246;1219;-75
2022/08/31 03:01:07;;;;;;;;;;;22.10;52.40;;;;;;484299;246;1208;-75
2022/08/31 03:03:08;;;;;;;;;;;22.10;52.20;;;;;;484305;246;1241;-75
2022/08/31 03:05:09;;;;;;;;;;;22.10;52.20;;;;;;484284;246;1140;-75
2022/08/31 03:07:11;;;;;;;;;;;22.10;52.30;;;;;;484228;246;1088;-74
2022/08/31 03:09:12;;;;;;;;;;;22.10;52.30;;;;;;484242;246;2093;-75
2022/08/31 03:11:13;;;;;;;;;;;22.10;52.30;;;;;;484256;246;1221;-74
2022/08/31 03:13:15;;;;;;;;;;;22.20;52.20;;;;;;484280;246;1103;-74
2022/08/31 03:15:22;;;;;;;;;;;22.20;52.10;;;;;;484298;246;1113;-74
2022/08/31 03:17:24;;;;;;;;;;;22.20;52.10;;;;;;484303;246;1230;-74
2022/08/31 03:19:25;;;;;;;;;;;22.20;52.00;;;;;;484156;246;1174;-74
2022/08/31 03:21:26;;;;;;;;;;;22.20;52.00;;;;;;484463;246;1126;-74
2022/08/31 03:23:28;;;;;;;;;;;22.20;52.00;;;;;;484284;246;1131;-74
2022/08/31 03:25:29;;;;;;;;;;;22.20;52.10;;;;;;484254;246;1287;-74
2022/08/31 03:27:31;;;;;;;;;;;22.20;52.10;;;;;;484250;246;2192;-75
2022/08/31 03:29:32;;;;;;;;;;;22.20;52.00;;;;;;484307;246;1155;-75
2022/08/31 03:31:33;;;;;;;;;;;22.20;52.00;;;;;;484283;246;1164;-75
2022/08/31 03:33:34;;;;;;;;;;;22.20;52.00;;;;;;484370;246;1121;-75
2022/08/31 03:35:36;;;;;;;;;;;22.30;51.80;;;;;;484315;246;1140;-75
2022/08/31 03:37:37;;;;;;;;;;;22.30;51.80;;;;;;484179;246;1138;-75
2022/08/31 03:39:38;;;;;;;;;;;22.20;52.00;;;;;;484229;246;1169;-75
2022/08/31 03:41:40;;;;;;;;;;;22.20;52.10;;;;;;484417;246;1138;-75
2022/08/31 03:43:41;;;;;;;;;;;22.20;52.20;;;;;;484163;243;1131;-74
2022/08/31 03:45:42;;;;;;;;;;;22.20;52.00;;;;;;484262;246;1253;-75
2022/08/31 03:47:44;;;;;;;;;;;22.20;52.00;;;;;;484429;246;2216;-74
2022/08/31 03:49:45;;;;;;;;;;;22.20;52.00;;;;;;484281;246;1151;-74
2022/08/31 03:51:46;;;;;;;;;;;22.20;51.80;;;;;;484277;246;1148;-74
2022/08/31 03:53:48;;;;;;;;;;;22.20;51.80;;;;;;484200;246;1180;-74
2022/08/31 03:55:49;;;;;;;;;;;22.10;51.70;;;;;;484245;246;1161;-74
2022/08/31 03:57:50;;;;;;;;;;;22.10;51.70;;;;;;484241;246;1144;-74
2022/08/31 03:59:52;;;;;;;;;;;22.10;51.70;;;;;;484261;246;1173;-74
2022/08/31 04:01:53;;;;;;;;;;;22.10;51.70;;;;;;484230;246;1092;-74
2022/08/31 04:03:54;;;;;;;;;;;22.10;51.80;;;;;;484304;246;1091;-74
2022/08/31 04:05:56;;;;;;;;;;;22.00;52.10;;;;;;484299;246;1106;-74
2022/08/31 04:07:57;;;;;;;;;;;21.90;52.10;;;;;;484052;246;2191;-74
2022/08/31 04:09:58;;;;;;;;;;;21.90;52.20;;;;;;484244;246;1168;-74
2022/08/31 04:12:00;;;;;;;;;;;21.80;52.30;;;;;;484412;246;1087;-74
2022/08/31 04:14:01;;;;;;;;;;;21.90;52.40;;;;;;484241;246;1167;-74
2022/08/31 04:16:02;;;;;;;;;;;21.90;52.20;;;;;;484350;246;1100;-74
2022/08/31 04:18:04;;;;;;;;;;;22.00;52.10;;;;;;484208;246;1189;-74
2022/08/31 04:20:05;;;;;;;;;;;22.00;52.10;;;;;;484222;246;1127;-74
2022/08/31 04:22:06;;;;;;;;;;;22.00;52.00;;;;;;484286;246;1096;-74
2022/08/31 04:24:08;;;;;;;;;;;22.10;52.00;;;;;;484204;246;1091;-74
2022/08/31 04:26:09;;;;;;;;;;;22.00;52.00;;;;;;484346;246;991;-74
2022/08/31 04:28:10;;;;;;;;;;;22.10;52.00;;;;;;484351;246;2160;-74
2022/08/31 04:30:12;;;;;;;;;;;22.00;52.00;;;;;;484304;246;1192;-74
2022/08/31 04:32:13;;;;;;;;;;;22.10;52.00;;;;;;484239;246;1106;-75
2022/08/31 04:34:14;;;;;;;;;;;22.10;52.10;;;;;;484268;246;1162;-75
2022/08/31 04:36:16;;;;;;;;;;;22.10;52.00;;;;;;484380;246;1048;-75
2022/08/31 04:38:17;;;;;;;;;;;22.10;51.70;;;;;;484149;246;1029;-74
2022/08/31 04:40:19;;;;;;;;;;;22.10;52.00;;;;;;484170;246;1191;-74
2022/08/31 04:42:20;;;;;;;;;;;22.10;52.00;;;;;;484292;246;1131;-74
2022/08/31 04:44:21;;;;;;;;;;;22.00;52.00;;;;;;484200;246;1123;-74
2022/08/31 04:46:23;;;;;;;;;;;22.00;52.30;;;;;;484310;246;1355;-74
2022/08/31 04:48:24;;;;;;;;;;;22.10;52.20;;;;;;484246;246;2148;-74
2022/08/31 04:50:25;;;;;;;;;;;22.10;52.00;;;;;;484288;246;1110;-74
2022/08/31 04:52:28;;;;;;;;;;;22.10;52.00;;;;;;484182;246;1128;-74
2022/08/31 04:54:29;;;;;;;;;;;22.10;52.20;;;;;;484283;246;1393;-74
2022/08/31 04:56:30;;;;;;;;;;;22.10;52.10;;;;;;483933;246;1106;-74
2022/08/31 04:58:31;;;;;;;;;;;22.10;52.10;;;;;;484483;246;1120;-74
2022/08/31 05:00:34;;;;;;;;;;;22.20;51.80;;;;;;484289;246;1112;-74
2022/08/31 05:02:34;;;;;;;;;;;22.30;51.80;;;;;;484187;246;1430;-74
2022/08/31 05:04:35;;;;;;;;;;;22.30;51.80;;;;;;484272;246;1136;-74
2022/08/31 05:06:37;;;;;;;;;;;22.20;51.80;;;;;;484133;246;1133;-74
2022/08/31 05:08:38;;;;;;;;;;;22.20;51.80;;;;;;484071;246;2156;-74
2022/08/31 05:10:40;;;;;;;;;;;22.20;51.90;;;;;;484269;246;1226;-74
2022/08/31 05:12:41;;;;;;;;;;;22.20;51.80;;;;;;484224;246;1184;-74
2022/08/31 05:14:42;;;;;;;;;;;22.30;51.70;;;;;;484326;246;1207;-74
2022/08/31 05:16:44;;;;;;;;;;;22.30;51.50;;;;;;484286;246;1338;-74
2022/08/31 05:18:45;;;;;;;;;;;22.40;51.50;;;;;;484272;246;1442;-74
2022/08/31 05:20:47;;;;;;;;;;;22.40;51.50;;;;;;484170;246;1105;-74
2022/08/31 05:22:49;;;;;;;;;;;22.30;51.50;;;;;;484160;246;1192;-74
2022/08/31 05:24:50;;;;;;;;;;;22.30;51.60;;;;;;484178;246;1015;-74
2022/08/31 05:26:51;;;;;;;;;;;22.30;51.80;;;;;;484305;246;1111;-74
2022/08/31 05:28:53;;;;;;;;;;;22.30;51.60;;;;;;484328;246;2200;-74
2022/08/31 05:30:55;;;;;;;;;;;22.30;51.70;;;;;;484358;246;1167;-74
2022/08/31 05:32:55;;;;;;;;;;;22.30;51.80;;;;;;484179;246;1729;-74
2022/08/31 05:34:57;;;;;;;;;;;22.20;51.80;;;;;;484300;246;1191;-74
2022/08/31 05:36:58;;;;;;;;;;;22.20;51.80;;;;;;484094;246;1164;-74
2022/08/31 05:38:59;;;;;;;;;;;22.30;51.80;;;;;;484249;246;1260;-74
2022/08/31 05:41:01;;;;;;;;;;;22.30;51.80;;;;;;484377;246;1135;-74
2022/08/31 05:43:02;;;;;;;;;;;22.30;51.80;;;;;;484142;246;1152;-74
2022/08/31 05:45:03;;;;;;;;;;;22.30;51.80;;;;;;484193;246;1182;-74
2022/08/31 05:47:05;;;;;;;;;;;22.30;51.70;;;;;;484155;246;1162;-74
2022/08/31 05:49:06;;;;;;;;;;;22.30;51.70;;;;;;484341;246;2165;-74
2022/08/31 05:51:07;;;;;;;;;;;22.40;51.60;;;;;;484186;246;1274;-74
2022/08/31 05:53:09;;;;;;;;;;;22.40;51.50;;;;;;484204;246;1098;-74
2022/08/31 05:55:10;;;;;;;;;;;22.40;51.30;;;;;;484075;246;1111;-74
2022/08/31 05:57:12;;;;;;;;;;;22.40;51.40;;;;;;484150;246;1095;-74
2022/08/31 05:59:13;;;;;;;;;;;22.40;51.50;;;;;;484216;246;1112;-74
2022/08/31 06:01:14;;;;;;;;;;;22.40;51.50;;;;;;484227;246;1239;-74
2022/08/31 06:03:16;;;;;;;;;;;22.40;51.40;;;;;;484213;246;1056;-75
2022/08/31 06:05:17;;;;;;;;;;;22.40;51.50;;;;;;484270;246;1176;-75
2022/08/31 06:07:19;;;;;;;;;;;22.40;51.50;;;;;;483759;246;1114;-74
2022/08/31 06:09:20;;;;;;;;;;;22.40;51.50;;;;;;483846;246;2156;-74
2022/08/31 06:11:21;;;;;;;;;;;22.40;51.60;;;;;;484125;246;1125;-74
2022/08/31 06:13:25;;;;;;;;;;;22.30;51.60;;;;;;483900;246;1263;-75
2022/08/31 06:15:30;;;;;;;;;;;22.40;51.60;;;;;;483442;246;1380;-74
2022/08/31 06:17:33;;;;;;;;;;;22.50;51.50;;;;;;480936;247;1076;-74
2022/08/31 06:19:34;;;;;;;;;;;22.40;51.60;;;;;;480965;247;1591;-74
2022/08/31 06:21:34;;;;;;;;;;;22.40;51.50;;;;;;482714;247;1326;-74
2022/08/31 06:23:36;;;;;;;;;;;22.40;51.60;;;;;;483100;245;1210;-74
2022/08/31 06:25:37;;;;;;;;;;;22.30;51.70;;;;;;483199;245;1278;-74
2022/08/31 06:27:38;;;;;;;;;;;22.30;51.70;;;;;;483073;245;1128;-74
2022/08/31 06:29:40;;;;;;;;;;;22.30;51.70;;;;;;483028;247;2156;-74
2022/08/31 06:31:45;;;;;;;;;;;22.30;51.80;;;;;;483595;245;1208;-74
2022/08/31 06:33:43;;;;;;;;;;;22.30;51.80;;;;;;483820;246;1606;-74
2022/08/31 06:35:46;;;;;;;;;;;22.30;51.60;;;;;;483975;246;1143;-74
2022/08/31 06:37:46;;;;;;;;;;;22.30;51.60;;;;;;483830;246;1404;-74
2022/08/31 06:39:47;;;;;;;;;;;22.40;51.60;;;;;;483799;246;1213;-75
2022/08/31 06:41:51;;;;;;;;;;;22.30;51.60;;;;;;483823;246;1137;-74
2022/08/31 06:43:51;;;;;;;;;;;22.30;51.60;;;;;;483702;246;1442;-74
2022/08/31 06:45:52;;;;;;;;;;;22.30;51.70;;;;;;483722;246;1147;-74
2022/08/31 06:47:57;;;;;;;;;;;22.30;51.80;;;;;;483859;246;1136;-74
2022/08/31 06:49:56;;;;;;;;;;;22.40;51.70;;;;;;483617;246;2199;-74
2022/08/31 06:51:59;;;;;;;;;;;22.30;51.50;;;;;;483991;246;1102;-74
2022/08/31 06:53:59;;;;;;;;;;;22.30;51.80;;;;;;483737;246;1398;-74
2022/08/31 06:56:02;;;;;;;;;;;22.30;51.90;;;;;;483977;246;1194;-74
2022/08/31 06:58:02;;;;;;;;;;;22.30;51.90;;;;;;483683;246;1295;-74
2022/08/31 07:00:04;;;;;;;;;;;22.30;51.80;;;;;;484020;246;1213;-74
2022/08/31 07:02:05;;;;;;;;;;;22.40;51.80;;;;;;483839;246;1143;-74
2022/08/31 07:04:06;;;;;;;;;;;22.40;51.60;;;;;;483835;246;1210;-74
2022/08/31 07:06:07;;;;;;;;;;;22.40;51.50;;;;;;483970;246;1160;-74
2022/08/31 07:08:09;;;;;;;;;;;22.40;51.60;;;;;;483958;246;1125;-74
2022/08/31 07:10:10;;;;;;;;;;;22.30;51.70;;;;;;483833;246;2164;-74
2022/08/31 07:12:12;;;;;;;;;;;22.30;51.70;;;;;;484064;246;1217;-75
2022/08/31 07:14:13;;;;;;;;;;;22.30;51.80;;;;;;483979;246;1140;-74
2022/08/31 07:16:15;;;;;;;;;;;22.30;51.70;;;;;;483843;246;1121;-74
2022/08/31 07:18:16;;;;;;;;;;;22.40;51.60;;;;;;483608;246;1250;-74
2022/08/31 07:20:17;;;;;;;;;;;22.30;51.80;;;;;;483775;246;1140;-74
2022/08/31 07:22:19;;;;;;;;;;;22.30;51.90;;;;;;483870;246;1076;-74
2022/08/31 07:24:22;;;;;;;;;;;22.30;51.80;;;;;;483966;246;1064;-74
2022/08/31 07:26:24;;;;;;;;;;;22.30;51.80;;;;;;483897;246;1507;-74
2022/08/31 07:28:24;;;;;;;;;;;22.40;51.80;;;;;;483747;246;1373;-74
2022/08/31 07:30:25;;;;;;;;;;;22.40;51.70;;;;;;483754;246;2236;-74
2022/08/31 07:32:26;;;;;;;;;;;22.40;51.70;;;;;;483913;246;1130;-74
2022/08/31 07:34:28;;;;;;;;;;;22.40;51.80;;;;;;483933;246;1171;-74
2022/08/31 07:36:29;;;;;;;;;;;22.30;51.90;;;;;;483978;246;1154;-74
2022/08/31 07:43:09;;;;;;;;;;;22.20;51.80;;;;;;483963;246;1204;-74
2022/08/31 07:45:11;;;;;;;;;;;22.20;51.80;;;;;;483989;246;1204;-74
2022/08/31 07:47:13;;;;;;;;;;;22.30;51.90;;;;;;483908;246;1232;-74
2022/08/31 07:49:14;;;;;;;;;;;22.30;51.60;;;;;;483943;246;2160;-74
2022/08/31 07:51:22;;;;;;;;;;;22.40;51.50;;;;;;483762;246;1113;-75
2022/08/31 07:53:16;;;;;;;;;;;22.30;51.50;;;;;;483458;246;1437;-74
2022/08/31 07:55:18;;;;;;;;;;;22.30;51.40;;;;;;483986;246;1044;-74
2022/08/31 07:57:20;;;;;;;;;;;22.20;51.60;;;;;;484094;246;1138;-74
2022/08/31 07:59:20;;;;;;;;;;;22.30;51.60;;;;;;483975;246;1342;-74
2022/08/31 08:01:22;;;;;;;;;;;22.30;51.60;;;;;;484010;246;1201;-74
2022/08/31 08:03:24;;;;;;;;;;;22.30;51.60;;;;;;483981;246;1278;-74
2022/08/31 08:05:24;;;;;;;;;;;22.30;51.60;;;;;;484001;246;1493;-74
2022/08/31 08:07:26;;;;;;;;;;;22.30;51.60;;;;;;483924;246;1148;-75
2022/08/31 08:09:27;;;;;;;;;;;22.30;51.50;;;;;;483935;246;2145;-74
2022/08/31 08:11:28;;;;;;;;;;;22.40;51.40;;;;;;483959;246;1313;-74
2022/08/31 08:13:31;;;;;;;;;;;22.30;51.50;;;;;;483795;246;1201;-74
2022/08/31 08:15:31;;;;;;;;;;;22.30;51.50;;;;;;483823;246;1472;-74
2022/08/31 08:17:33;;;;;;;;;;;22.50;51.40;;;;;;483933;246;1276;-74
2022/08/31 08:19:34;;;;;;;;;;;22.40;51.50;;;;;;483985;246;1109;-74
2022/08/31 08:21:36;;;;;;;;;;;22.40;51.60;;;;;;483975;246;1095;-74
2022/08/31 08:23:37;;;;;;;;;;;22.40;51.70;;;;;;483899;246;1436;-74
2022/08/31 08:25:38;;;;;;;;;;;22.30;51.80;;;;;;484021;246;1185;-74
2022/08/31 08:27:39;;;;;;;;;;;22.40;51.80;;;;;;484032;246;1173;-74
2022/08/31 08:29:41;;;;;;;;;;;22.40;51.90;;;;;;483936;246;2141;-74
2022/08/31 08:31:42;;;;;;;;;;;22.40;51.90;;;;;;484062;246;1119;-75
2022/08/31 08:33:43;;;;;;;;;;;22.40;51.70;;;;;;483857;246;1204;-74
2022/08/31 08:35:45;;;;;;;;;;;22.50;51.60;;;;;;483877;246;1162;-74
2022/08/31 08:37:46;;;;;;;;;;;22.40;51.60;;;;;;483986;246;1117;-74
2022/08/31 08:39:48;;;;;;;;;;;22.40;51.90;;;;;;483847;246;1080;-74
2022/08/31 08:41:49;;;;;;;;;;;22.30;51.90;;;;;;483964;246;1107;-74
2022/08/31 08:43:50;;;;;;;;;;;22.40;51.90;;;;;;483948;246;1024;-74
2022/08/31 08:45:52;;;;;;;;;;;22.40;51.80;;;;;;483952;246;1171;-74
2022/08/31 08:47:55;;;;;;;;;;;22.50;51.90;;;;;;483934;246;1268;-74
2022/08/31 08:49:55;;;;;;;;;;;22.50;51.90;;;;;;483809;246;2157;-74
2022/08/31 08:51:56;;;;;;;;;;;22.30;51.80;;;;;;483731;246;1193;-74
2022/08/31 08:53:57;;;;;;;;;;;22.40;51.90;;;;;;483864;246;1142;-74
2022/08/31 08:55:59;;;;;;;;;;;22.40;51.90;;;;;;483868;246;1185;-74
2022/08/31 08:58:04;;;;;;;;;;;22.40;51.90;;;;;;483868;246;1234;-74
2022/08/31 09:00:02;;;;;;;;;;;22.30;51.90;;;;;;483512;246;1443;-74
2022/08/31 09:02:05;;;;;;;;;;;22.40;51.90;;;;;;483875;246;1387;-74
2022/08/31 09:04:04;;;;;;;;;;;22.50;52.00;;;;;;483684;246;1389;-74
2022/08/31 09:06:08;;;;;;;;;;;22.50;51.70;;;;;;483756;246;1796;-74
2022/08/31 09:08:10;;;;;;;;;;;22.50;51.70;;;;;;483664;246;1412;-74
2022/08/31 09:10:09;;;;;;;;;;;22.40;51.70;;;;;;483713;246;2160;-74
2022/08/31 09:12:11;;;;;;;;;;;22.40;51.90;;;;;;483833;246;1145;-74
2022/08/31 09:14:17;;;;;;;;;;;22.40;51.90;;;;;;483822;246;1255;-74
2022/08/31 09:16:16;;;;;;;;;;;22.40;51.90;;;;;;483557;246;1330;-75
2022/08/31 09:18:15;;;;;;;;;;;22.50;51.70;;;;;;483652;246;1264;-74
2022/08/31 09:20:16;;;;;;;;;;;22.40;51.80;;;;;;483843;246;1065;-74
2022/08/31 09:22:18;;;;;;;;;;;22.50;51.70;;;;;;483995;246;1230;-74
2022/08/31 09:24:19;;;;;;;;;;;22.50;51.70;;;;;;483922;246;1055;-75
2022/08/31 09:26:26;;;;;;;;;;;22.40;51.90;;;;;;483887;246;1055;-74
2022/08/31 09:28:22;;;;;;;;;;;22.40;51.90;;;;;;483535;246;1433;-74
2022/08/31 09:30:23;;;;;;;;;;;22.40;52.00;;;;;;483867;246;2200;-74
2022/08/31 09:32:25;;;;;;;;;;;22.40;52.00;;;;;;483958;246;1063;-74
2022/08/31 09:34:27;;;;;;;;;;;22.40;51.90;;;;;;483869;246;1128;-74
2022/08/31 09:36:28;;;;;;;;;;;22.40;51.90;;;;;;484032;246;1310;-74
2022/08/31 09:38:29;;;;;;;;;;;22.40;51.90;;;;;;483941;246;1013;-74
2022/08/31 09:40:30;;;;;;;;;;;22.40;51.90;;;;;;483825;246;1058;-74
2022/08/31 09:42:32;;;;;;;;;;;22.40;51.90;;;;;;483941;246;1181;-74
2022/08/31 09:44:34;;;;;;;;;;;22.50;51.90;;;;;;483924;246;1223;-74
2022/08/31 09:46:35;;;;;;;;;;;22.50;51.90;;;;;;483917;246;1180;-74
2022/08/31 09:48:36;;;;;;;;;;;22.40;51.90;;;;;;483928;246;1175;-74
2022/08/31 09:50:38;;;;;;;;;;;22.40;52.20;;;;;;483934;246;2208;-74
2022/08/31 09:55:13;;;;;;;;;;;22.40;52.30;;;;;;483918;242;1137;-74
2022/08/31 09:57:16;;;;;;;;;;;22.30;52.30;;;;;;483695;246;1174;-74
2022/08/31 09:59:16;;;;;;;;;;;22.30;52.30;;;;;;483674;246;1459;-74
2022/08/31 10:01:18;;;;;;;;;;;22.30;52.30;;;;;;483723;246;1221;-74
2022/08/31 10:03:19;;;;;;;;;;;22.30;52.20;;;;;;483624;246;1401;-74
2022/08/31 10:05:20;;;;;;;;;;;22.40;52.00;;;;;;483705;246;1245;-74
2022/08/31 10:07:23;;;;;;;;;;;22.50;52.00;;;;;;483702;246;1123;-74
2022/08/31 10:09:23;;;;;;;;;;;22.40;51.90;;;;;;483541;246;1426;-74
2022/08/31 10:11:25;;;;;;;;;;;22.50;52.00;;;;;;483846;246;2161;-74
2022/08/31 10:13:26;;;;;;;;;;;22.50;52.00;;;;;;483779;246;1352;-74
2022/08/31 10:15:27;;;;;;;;;;;22.50;52.00;;;;;;483780;246;1297;-74
2022/08/31 10:17:28;;;;;;;;;;;22.60;51.90;;;;;;483683;246;1168;-74
2022/08/31 10:19:31;;;;;;;;;;;22.40;52.20;;;;;;483645;246;1111;-74
2022/08/31 10:21:31;;;;;;;;;;;22.50;52.10;;;;;;483817;246;1234;-74
2022/08/31 10:40:54;;;;;;;;;;;22.50;52.00;;;;;;487475;242;2448;-74
2022/08/31 10:42:58;;;;;;;;;;;22.50;52.00;;;;;;483715;246;1236;-74
2022/08/31 10:44:57;;;;;;;;;;;22.50;52.00;;;;;;483601;246;1572;-74
2022/08/31 10:47:01;;;;;;;;;;;22.50;52.10;;;;;;484643;245;1112;-74
2022/08/31 10:49:00;;;;;;;;;;;22.50;52.20;;;;;;484402;246;2002;-74
2022/08/31 10:51:04;;;;;;;;;;;22.40;52.10;;;;;;484563;246;2191;-74
2022/08/31 10:53:02;;;;;;;;;;;22.40;52.30;;;;;;484342;246;1328;-74
2022/08/31 10:55:05;;;;;;;;;;;22.40;52.50;;;;;;484150;245;1223;-75
2022/08/31 10:57:05;;;;;;;;;;;22.20;52.90;;;;;;484503;245;1618;-75
2022/08/31 10:59:07;;;;;;;;;;;22.30;52.80;;;;;;484637;246;1448;-75
2022/08/31 11:01:08;;;;;;;;;;;22.30;52.70;;;;;;484536;246;1101;-75
2022/08/31 11:03:10;;;;;;;;;;;22.30;52.80;;;;;;484525;246;1138;-75
2022/08/31 11:05:11;;;;;;;;;;;22.30;52.70;;;;;;484721;245;1150;-75
2022/08/31 11:07:12;;;;;;;;;;;22.20;52.80;;;;;;484630;245;1161;-74
2022/08/31 11:09:14;;;;;;;;;;;22.20;53.00;;;;;;484507;246;1180;-74
2022/08/31 11:11:15;;;;;;;;;;;22.00;53.30;;;;;;484088;246;2168;-74
2022/08/31 11:13:19;;;;;;;;;;;22.10;53.40;;;;;;484538;246;1309;-74
2022/08/31 11:15:21;;;;;;;;;;;22.20;53.10;;;;;;484571;245;1408;-74
2022/08/31 11:17:19;;;;;;;;;;;22.40;52.70;;;;;;484553;246;1489;-74
2022/08/31 11:19:24;;;;;;;;;;;22.40;52.60;;;;;;484293;246;1233;-74
2022/08/31 11:21:22;;;;;;;;;;;22.40;52.30;;;;;;484361;246;1432;-74
2022/08/31 11:23:25;;;;;;;;;;;22.40;52.50;;;;;;484453;246;1258;-74
2022/08/31 11:25:25;;;;;;;;;;;22.40;52.50;;;;;;484183;245;1513;-74
2022/08/31 11:27:27;;;;;;;;;;;22.50;52.30;;;;;;484566;246;1142;-75
2022/08/31 11:29:28;;;;;;;;;;;22.50;52.20;;;;;;484593;246;1256;-74
2022/08/31 11:31:30;;;;;;;;;;;22.40;52.40;;;;;;484510;246;2199;-74
2022/08/31 11:33:31;;;;;;;;;;;22.30;52.50;;;;;;484595;246;1210;-74
2022/08/31 11:35:32;;;;;;;;;;;22.30;52.60;;;;;;484617;246;1062;-74
2022/08/31 11:37:34;;;;;;;;;;;22.30;52.60;;;;;;484611;246;1211;-74
2022/08/31 11:39:35;;;;;;;;;;;22.30;52.40;;;;;;484590;246;1093;-74
2022/08/31 11:41:37;;;;;;;;;;;22.30;52.40;;;;;;484419;246;1089;-74
2022/08/31 11:43:38;;;;;;;;;;;22.30;52.40;;;;;;484473;246;1424;-74
2022/08/31 11:45:39;;;;;;;;;;;22.40;52.50;;;;;;484560;246;1098;-74
2022/08/31 11:47:42;;;;;;;;;;;22.40;52.30;;;;;;484570;246;1198;-74
2022/08/31 11:49:43;;;;;;;;;;;22.40;52.30;;;;;;484533;246;1144;-74
2022/08/31 11:51:44;;;;;;;;;;;22.40;52.40;;;;;;484478;246;2207;-74
2022/08/31 11:53:51;;;;;;;;;;;22.40;52.30;;;;;;484470;246;1135;-74
2022/08/31 11:55:48;;;;;;;;;;;22.40;52.20;;;;;;484139;246;1475;-74
2022/08/31 11:57:49;;;;;;;;;;;22.40;52.20;;;;;;484623;246;1196;-75
2022/08/31 11:59:50;;;;;;;;;;;22.40;52.10;;;;;;484667;246;1302;-74
2022/08/31 12:01:52;;;;;;;;;;;22.50;52.10;;;;;;484660;246;1438;-74
2022/08/31 12:03:54;;;;;;;;;;;22.50;52.00;;;;;;484447;246;1433;-74
2022/08/31 12:05:56;;;;;;;;;;;22.50;51.90;;;;;;484473;246;1448;-74
2022/08/31 12:07:56;;;;;;;;;;;22.40;51.90;;;;;;484491;246;1320;-75
2022/08/31 12:09:57;;;;;;;;;;;22.40;51.90;;;;;;484561;246;1147;-74
2022/08/31 12:11:58;;;;;;;;;;;22.40;51.90;;;;;;484474;246;2188;-74
2022/08/31 12:14:00;;;;;;;;;;;22.40;51.90;;;;;;484543;246;1171;-74
2022/08/31 12:16:02;;;;;;;;;;;22.30;51.90;;;;;;484479;246;1155;-74
2022/08/31 12:18:03;;;;;;;;;;;22.40;51.80;;;;;;484420;246;1339;-74
2022/08/31 12:20:05;;;;;;;;;;;22.30;51.80;;;;;;484494;246;1224;-74
2022/08/31 12:24:25;;;;;;;;;;;22.10;52.30;;;;;;484536;245;1198;-74
2022/08/31 12:26:26;;;;;;;;;;;22.10;52.50;;;;;;484566;246;1227;-74
2022/08/31 12:28:27;;;;;;;;;;;22.00;52.70;;;;;;484610;246;1142;-74